Time;durP1;ratioP1;P1;durP2;ratioP2;P2;SDS_P1;SDS_P2;PMS_P1;PMS_P2;Temp;Humidity;BMP_temperature;BMP_pressure;BME280_temperature;BME280_humidity;BME280_pressure;Samples;Min_cycle;Max_cycle;Signal;HPM_P1;HPM_P2
2022/08/07 00:00:24;;;;;;;;;;;12.30;99.90;;;;;;4912382;29;19942;-63
2022/08/07 00:02:54;;;;;;;;;;;12.20;99.90;;;;;;4912342;29;19927;-57
2022/08/07 00:05:23;;;;;;;;;;;12.20;99.90;;;;;;4912657;29;19934;-64
2022/08/07 00:07:51;;;;;;;;;;;12.20;99.90;;;;;;4912027;29;19931;-64
2022/08/07 00:10:27;;;;;;;;;;;12.20;99.90;;;;;;4911338;29;19928;-64
2022/08/07 00:12:58;;;;;;;;;;;12.10;99.90;;;;;;4910951;29;19927;-62
2022/08/07 00:15:29;;;;;;;;;;;12.10;99.90;;;;;;4912189;29;19949;-62
2022/08/07 00:18:15;;;;;;;;;;;12.10;99.90;;;;;;4896611;29;19954;-62
2022/08/07 00:20:48;;;;;;;;;;;12.10;99.90;;;;;;4912272;29;19927;-58
2022/08/07 00:23:16;;;;;;;;;;;12.10;99.90;;;;;;4911732;29;20367;-60
2022/08/07 00:25:43;;;;;;;;;;;12.10;99.90;;;;;;4910798;29;20431;-62
2022/08/07 00:28:18;;;;;;;;;;;12.00;99.90;;;;;;4911893;29;19927;-60
2022/08/07 00:30:48;;;;;;;;;;;12.00;99.90;;;;;;4909214;29;19931;-61
2022/08/07 00:33:16;;;;;;;;;;;12.00;99.90;;;;;;4898575;29;19964;-62
2022/08/07 00:35:43;;;;;;;;;;;11.90;99.90;;;;;;4915620;29;19934;-59
2022/08/07 00:38:16;;;;;;;;;;;11.90;99.90;;;;;;4914177;29;19928;-60
2022/08/07 00:40:58;;;;;;;;;;;11.90;99.90;;;;;;4915917;29;19954;-62
2022/08/07 00:43:26;;;;;;;;;;;11.90;99.90;;;;;;4915614;29;19931;-62
2022/08/07 00:46:13;;;;;;;;;;;11.90;99.90;;;;;;4915404;29;19931;-62
2022/08/07 00:48:41;;;;;;;;;;;11.90;99.90;;;;;;4915231;29;20102;-61
2022/08/07 00:51:09;;;;;;;;;;;11.80;99.90;;;;;;4915351;29;19929;-61
2022/08/07 00:53:37;;;;;;;;;;;11.70;99.90;;;;;;4915079;29;19943;-62
2022/08/07 00:56:22;;;;;;;;;;;11.70;99.90;;;;;;4914080;29;19935;-61
2022/08/07 00:58:56;;;;;;;;;;;11.70;99.90;;;;;;4915050;29;20406;-62
2022/08/07 01:01:24;;;;;;;;;;;11.60;99.90;;;;;;4910312;29;19928;-61
2022/08/07 01:03:52;;;;;;;;;;;11.60;99.90;;;;;;4887019;29;19933;-59
2022/08/07 01:06:25;;;;;;;;;;;11.60;99.90;;;;;;4895028;29;19934;-62
2022/08/07 01:08:52;;;;;;;;;;;11.50;99.90;;;;;;4913516;29;19931;-61
2022/08/07 01:11:24;;;;;;;;;;;11.50;99.90;;;;;;4913812;29;20568;-61
2022/08/07 01:14:12;;;;;;;;;;;11.50;99.90;;;;;;4929228;29;19940;-62
2022/08/07 01:16:43;;;;;;;;;;;11.50;99.90;;;;;;4912668;29;20028;-57
2022/08/07 01:19:17;;;;;;;;;;;11.40;99.90;;;;;;4913309;29;20379;-61
2022/08/07 01:21:50;;;;;;;;;;;11.40;99.90;;;;;;4929391;29;19931;-61
2022/08/07 01:24:21;;;;;;;;;;;11.40;99.90;;;;;;4913188;29;19957;-60
2022/08/07 01:26:50;;;;;;;;;;;11.40;99.90;;;;;;4929422;29;19934;-60
2022/08/07 01:29:22;;;;;;;;;;;11.30;99.90;;;;;;4897546;29;20123;-60
2022/08/07 01:31:54;;;;;;;;;;;11.40;99.90;;;;;;4901694;29;19935;-56
2022/08/07 01:34:31;;;;;;;;;;;11.40;99.90;;;;;;4897706;29;19935;-61
2022/08/07 01:37:06;;;;;;;;;;;11.30;99.90;;;;;;4897747;29;19928;-62
2022/08/07 01:39:37;;;;;;;;;;;11.30;99.90;;;;;;4928429;29;19927;-61
2022/08/07 01:42:19;;;;;;;;;;;11.30;99.90;;;;;;4916399;29;19927;-57
2022/08/07 01:45:06;;;;;;;;;;;11.20;99.90;;;;;;4915793;29;19934;-57
2022/08/07 01:47:43;;;;;;;;;;;11.20;99.90;;;;;;4880797;29;19927;-58
2022/08/07 01:50:31;;;;;;;;;;;11.20;99.90;;;;;;4898650;29;20390;-62
2022/08/07 01:52:59;;;;;;;;;;;11.10;99.90;;;;;;4882209;29;19935;-61
2022/08/07 01:55:30;;;;;;;;;;;11.10;99.90;;;;;;4897330;29;20376;-60
2022/08/07 01:58:01;;;;;;;;;;;11.10;99.90;;;;;;4896925;29;19935;-61
2022/08/07 02:00:51;;;;;;;;;;;11.10;99.90;;;;;;4913202;29;20398;-62
2022/08/07 02:03:38;;;;;;;;;;;11.10;99.90;;;;;;4898571;29;19927;-60
2022/08/07 02:06:18;;;;;;;;;;;11.00;99.90;;;;;;4898105;29;19934;-60
2022/08/07 02:09:01;;;;;;;;;;;11.00;99.90;;;;;;4912883;29;19934;-61
2022/08/07 02:11:33;;;;;;;;;;;11.00;99.90;;;;;;4897171;29;19938;-62
2022/08/07 02:14:23;;;;;;;;;;;11.00;99.90;;;;;;4912489;29;19935;-58
2022/08/07 02:17:04;;;;;;;;;;;11.00;99.90;;;;;;4912801;29;19934;-55
2022/08/07 02:19:33;;;;;;;;;;;10.90;99.90;;;;;;4912646;29;19927;-57
2022/08/07 02:22:22;;;;;;;;;;;10.90;99.90;;;;;;4912687;29;19927;-62
2022/08/07 02:24:54;;;;;;;;;;;10.90;99.90;;;;;;4912722;29;20388;-59
2022/08/07 02:27:24;;;;;;;;;;;10.90;99.90;;;;;;4898124;29;19931;-62
2022/08/07 02:29:53;;;;;;;;;;;10.80;99.90;;;;;;4912575;29;19939;-58
2022/08/07 02:32:26;;;;;;;;;;;10.80;99.90;;;;;;4912476;29;19947;-60
2022/08/07 02:34:57;;;;;;;;;;;10.80;99.90;;;;;;4912443;29;19934;-62
2022/08/07 02:37:29;;;;;;;;;;;10.80;99.90;;;;;;4896827;29;19934;-54
2022/08/07 02:40:07;;;;;;;;;;;10.70;99.90;;;;;;4896682;29;19928;-55
2022/08/07 02:42:57;;;;;;;;;;;10.70;99.90;;;;;;4912237;29;19934;-59
2022/08/07 02:45:27;;;;;;;;;;;10.70;99.90;;;;;;4912327;29;19927;-60
2022/08/07 02:48:15;;;;;;;;;;;10.70;99.90;;;;;;4896532;29;19935;-59
2022/08/07 02:50:47;;;;;;;;;;;10.60;99.90;;;;;;4911928;29;19928;-60
2022/08/07 02:53:21;;;;;;;;;;;10.60;99.90;;;;;;4897558;29;19935;-58
2022/08/07 02:55:55;;;;;;;;;;;10.60;99.90;;;;;;4912005;29;19934;-60
2022/08/07 02:58:33;;;;;;;;;;;10.60;99.90;;;;;;4911201;29;19928;-61
2022/08/07 03:01:04;;;;;;;;;;;10.60;99.90;;;;;;4912046;29;19927;-59
2022/08/07 03:03:45;;;;;;;;;;;10.60;99.90;;;;;;4912096;29;19936;-59
2022/08/07 03:06:22;;;;;;;;;;;10.60;99.90;;;;;;4896461;29;19935;-61
2022/08/07 03:09:01;;;;;;;;;;;10.60;99.90;;;;;;4911962;29;19927;-62
2022/08/07 03:11:30;;;;;;;;;;;10.50;99.90;;;;;;4911856;29;20441;-60
2022/08/07 03:14:03;;;;;;;;;;;10.50;99.90;;;;;;4897633;29;20283;-60
2022/08/07 03:16:32;;;;;;;;;;;10.50;99.90;;;;;;4911823;29;19928;-60
2022/08/07 03:19:00;;;;;;;;;;;10.50;99.90;;;;;;4911809;29;19935;-61
2022/08/07 03:21:28;;;;;;;;;;;10.40;99.90;;;;;;4895985;29;19928;-58
2022/08/07 03:24:00;;;;;;;;;;;10.40;99.90;;;;;;4910811;29;20291;-59
2022/08/07 03:26:50;;;;;;;;;;;10.40;99.90;;;;;;4908958;29;19938;-59
2022/08/07 03:29:31;;;;;;;;;;;10.40;99.90;;;;;;4895822;29;20332;-55
2022/08/07 03:32:05;;;;;;;;;;;10.40;99.90;;;;;;4911652;29;19934;-56
2022/08/07 03:34:35;;;;;;;;;;;10.40;99.90;;;;;;4895948;29;20405;-57
2022/08/07 03:37:07;;;;;;;;;;;10.30;99.90;;;;;;4911729;29;19927;-61
2022/08/07 03:39:43;;;;;;;;;;;10.30;99.90;;;;;;4895711;29;19939;-61
2022/08/07 03:42:27;;;;;;;;;;;10.30;99.90;;;;;;4911589;29;19928;-56
2022/08/07 03:44:55;;;;;;;;;;;10.30;99.90;;;;;;4895725;29;20375;-57
2022/08/07 03:47:27;;;;;;;;;;;10.20;99.90;;;;;;4896231;29;19997;-57
2022/08/07 03:50:16;;;;;;;;;;;10.30;99.90;;;;;;4911177;29;19928;-58
2022/08/07 03:52:50;;;;;;;;;;;10.20;99.90;;;;;;4880101;29;19927;-60
2022/08/07 03:55:19;;;;;;;;;;;10.20;99.90;;;;;;4895566;29;19935;-59
2022/08/07 03:57:47;;;;;;;;;;;10.20;99.90;;;;;;4896791;29;20388;-59
2022/08/07 04:00:37;;;;;;;;;;;10.10;99.90;;;;;;4911364;29;19935;-60
2022/08/07 04:03:13;;;;;;;;;;;10.10;99.90;;;;;;4895859;29;19931;-61
2022/08/07 04:05:40;;;;;;;;;;;10.10;99.90;;;;;;4895693;29;20272;-59
2022/08/07 04:08:19;;;;;;;;;;;10.10;99.90;;;;;;4895651;29;19928;-57
2022/08/07 04:10:49;;;;;;;;;;;10.10;99.90;;;;;;4899250;29;19928;-57
2022/08/07 04:13:22;;;;;;;;;;;10.10;99.90;;;;;;4899257;29;20295;-62
2022/08/07 04:15:54;;;;;;;;;;;10.00;99.90;;;;;;4915052;29;20303;-62
2022/08/07 04:18:25;;;;;;;;;;;10.00;99.90;;;;;;4914999;29;19927;-62
2022/08/07 04:21:12;;;;;;;;;;;10.00;99.90;;;;;;4900409;29;19931;-60
2022/08/07 04:23:43;;;;;;;;;;;10.00;99.90;;;;;;4914943;29;19938;-56
2022/08/07 04:26:31;;;;;;;;;;;10.00;99.90;;;;;;4899004;29;19927;-59
2022/08/07 04:28:59;;;;;;;;;;;10.00;99.90;;;;;;4899099;29;19964;-60
2022/08/07 04:31:29;;;;;;;;;;;10.00;99.90;;;;;;4914830;29;19935;-61
2022/08/07 04:34:17;;;;;;;;;;;10.00;99.90;;;;;;4900148;29;19935;-61
2022/08/07 04:36:54;;;;;;;;;;;10.00;99.90;;;;;;4898794;29;19927;-56
2022/08/07 04:39:22;;;;;;;;;;;9.90;99.90;;;;;;4900040;29;19950;-62
2022/08/07 04:41:53;;;;;;;;;;;10.00;99.90;;;;;;4899023;29;20389;-61
2022/08/07 04:44:20;;;;;;;;;;;10.00;99.90;;;;;;4898847;29;19951;-61
2022/08/07 04:47:11;;;;;;;;;;;10.00;99.90;;;;;;4914336;29;19927;-61
2022/08/07 04:50:16;;;;;;;;;;;10.00;99.90;;;;;;4895123;29;19931;-61
2022/08/07 04:53:10;;;;;;;;;;;10.00;99.90;;;;;;4895531;29;19927;-60
2022/08/07 04:56:04;;;;;;;;;;;10.10;99.90;;;;;;4895040;29;20396;-62
2022/08/07 04:58:58;;;;;;;;;;;10.10;99.90;;;;;;4911263;29;19927;-61
2022/08/07 05:01:48;;;;;;;;;;;10.20;99.90;;;;;;4912486;29;19938;-57
2022/08/07 05:04:24;;;;;;;;;;;10.20;99.90;;;;;;4908481;29;20335;-55
2022/08/07 05:07:13;;;;;;;;;;;10.20;99.90;;;;;;4907672;29;19935;-56
2022/08/07 05:10:02;;;;;;;;;;;10.20;99.90;;;;;;4906312;29;19931;-60
2022/08/07 05:12:38;;;;;;;;;;;10.20;99.90;;;;;;4901225;29;19931;-61
2022/08/07 05:15:18;;;;;;;;;;;10.20;99.90;;;;;;4915003;29;19931;-59
2022/08/07 05:17:58;;;;;;;;;;;10.20;99.90;;;;;;4907519;29;19928;-57
2022/08/07 05:20:50;;;;;;;;;;;10.20;99.90;;;;;;4890276;29;19934;-57
2022/08/07 05:23:37;;;;;;;;;;;10.20;99.90;;;;;;4907354;29;19927;-59
2022/08/07 05:26:09;;;;;;;;;;;10.20;99.90;;;;;;4912384;29;19938;-59
2022/08/07 05:28:45;;;;;;;;;;;10.20;99.90;;;;;;4910097;29;19931;-58
2022/08/07 05:31:20;;;;;;;;;;;10.20;99.90;;;;;;4910505;29;19934;-55
2022/08/07 05:33:51;;;;;;;;;;;10.20;99.90;;;;;;4922157;29;19927;-60
2022/08/07 05:36:41;;;;;;;;;;;10.20;99.90;;;;;;4893318;29;20308;-60
2022/08/07 05:39:18;;;;;;;;;;;10.20;99.90;;;;;;4884464;29;19927;-57
2022/08/07 05:42:06;;;;;;;;;;;10.20;99.90;;;;;;4897338;29;19928;-59
2022/08/07 05:44:42;;;;;;;;;;;10.20;99.90;;;;;;4928869;29;19927;-61
2022/08/07 05:47:30;;;;;;;;;;;10.20;99.90;;;;;;4913088;29;19927;-60
2022/08/07 05:50:20;;;;;;;;;;;10.30;99.90;;;;;;4894403;29;20315;-59
2022/08/07 05:52:51;;;;;;;;;;;10.30;99.90;;;;;;4902711;29;19927;-60
2022/08/07 05:55:19;;;;;;;;;;;10.40;99.90;;;;;;4929060;29;19931;-61
2022/08/07 05:57:49;;;;;;;;;;;10.40;99.90;;;;;;4929010;29;19927;-59
2022/08/07 06:00:17;;;;;;;;;;;10.50;99.90;;;;;;4912949;29;19953;-61
2022/08/07 06:02:55;;;;;;;;;;;10.50;99.90;;;;;;4901176;29;19928;-62
2022/08/07 06:05:27;;;;;;;;;;;10.60;99.90;;;;;;4894188;29;19927;-61
2022/08/07 06:08:00;;;;;;;;;;;10.60;99.90;;;;;;4917909;29;19934;-61
2022/08/07 06:10:49;;;;;;;;;;;10.70;99.90;;;;;;4914103;29;19935;-57
2022/08/07 06:13:19;;;;;;;;;;;10.70;99.90;;;;;;4927407;29;19950;-60
2022/08/07 06:16:09;;;;;;;;;;;10.80;99.90;;;;;;4910891;29;19938;-58
2022/08/07 06:18:40;;;;;;;;;;;10.90;99.90;;;;;;4907259;29;19927;-61
2022/08/07 06:21:11;;;;;;;;;;;10.90;99.90;;;;;;4892947;29;20450;-59
2022/08/07 06:24:02;;;;;;;;;;;11.00;99.90;;;;;;4908035;29;19927;-60
2022/08/07 06:26:49;;;;;;;;;;;11.10;99.90;;;;;;4910774;29;19927;-57
2022/08/07 06:29:17;;;;;;;;;;;11.10;99.90;;;;;;4896783;29;19934;-59
2022/08/07 06:31:46;;;;;;;;;;;11.20;99.90;;;;;;4912191;29;20411;-58
2022/08/07 06:34:24;;;;;;;;;;;11.20;99.90;;;;;;4900494;29;19950;-60
2022/08/07 06:36:57;;;;;;;;;;;11.30;99.90;;;;;;4909227;29;19932;-61
2022/08/07 06:39:35;;;;;;;;;;;11.40;99.90;;;;;;4894796;29;20442;-60
2022/08/07 06:42:24;;;;;;;;;;;11.50;99.90;;;;;;4897424;29;19938;-61
2022/08/07 06:45:12;;;;;;;;;;;11.60;99.90;;;;;;4891152;29;20434;-61
2022/08/07 06:47:51;;;;;;;;;;;11.70;99.90;;;;;;4896428;29;20434;-60
2022/08/07 06:50:38;;;;;;;;;;;11.80;99.90;;;;;;4889979;29;19935;-61
2022/08/07 06:53:18;;;;;;;;;;;12.00;99.90;;;;;;4911498;29;19927;-60
2022/08/07 06:56:09;;;;;;;;;;;12.10;99.90;;;;;;4912102;29;19927;-62
2022/08/07 06:58:45;;;;;;;;;;;12.20;99.90;;;;;;4913105;29;19938;-62
2022/08/07 07:01:34;;;;;;;;;;;12.40;99.90;;;;;;4910760;29;19931;-59
2022/08/07 07:04:17;;;;;;;;;;;12.60;99.90;;;;;;4899327;29;19943;-60
2022/08/07 07:06:59;;;;;;;;;;;12.80;99.90;;;;;;4892630;29;19927;-61
2022/08/07 07:09:29;;;;;;;;;;;12.90;99.90;;;;;;4907879;29;20403;-62
2022/08/07 07:12:07;;;;;;;;;;;13.00;99.90;;;;;;4909622;29;19927;-61
2022/08/07 07:14:49;;;;;;;;;;;13.20;99.90;;;;;;4912710;29;19927;-59
2022/08/07 07:17:21;;;;;;;;;;;13.30;99.90;;;;;;4911574;29;19927;-61
2022/08/07 07:19:58;;;;;;;;;;;13.40;99.90;;;;;;4898648;29;19934;-60
2022/08/07 07:22:27;;;;;;;;;;;13.60;99.90;;;;;;4898834;29;20276;-59
2022/08/07 07:25:07;;;;;;;;;;;13.70;99.90;;;;;;4913190;29;20080;-62
2022/08/07 07:27:57;;;;;;;;;;;13.80;99.90;;;;;;4912803;29;19931;-62
2022/08/07 07:30:31;;;;;;;;;;;13.90;99.90;;;;;;4911561;29;20154;-60
2022/08/07 07:33:07;;;;;;;;;;;14.00;99.90;;;;;;4912773;29;19947;-63
2022/08/07 07:35:47;;;;;;;;;;;14.10;99.90;;;;;;4912398;29;19939;-59
2022/08/07 07:38:32;;;;;;;;;;;14.20;99.90;;;;;;4912553;29;19927;-63
2022/08/07 07:41:04;;;;;;;;;;;14.30;99.90;;;;;;4911651;29;19939;-62
2022/08/07 07:43:38;;;;;;;;;;;14.40;99.90;;;;;;4914540;29;19931;-62
2022/08/07 07:46:29;;;;;;;;;;;14.50;99.90;;;;;;4917988;29;19927;-58
2022/08/07 07:49:18;;;;;;;;;;;14.60;99.90;;;;;;4918716;29;19927;-63
2022/08/07 07:52:06;;;;;;;;;;;14.70;99.90;;;;;;4918679;29;19934;-57
2022/08/07 07:54:34;;;;;;;;;;;14.80;99.90;;;;;;4918670;29;20406;-62
2022/08/07 07:57:04;;;;;;;;;;;14.90;99.90;;;;;;4918715;29;19934;-62
2022/08/07 07:59:33;;;;;;;;;;;15.00;99.90;;;;;;4901841;29;19927;-62
2022/08/07 08:02:21;;;;;;;;;;;15.00;99.90;;;;;;4918779;29;19934;-61
2022/08/07 08:05:03;;;;;;;;;;;15.20;99.90;;;;;;4918572;29;20192;-60
2022/08/07 08:07:34;;;;;;;;;;;15.20;99.90;;;;;;4918724;29;20417;-62
2022/08/07 08:10:18;;;;;;;;;;;15.40;99.90;;;;;;4918708;29;19927;-62
2022/08/07 08:13:06;;;;;;;;;;;15.40;99.90;;;;;;4918264;29;19927;-63
2022/08/07 08:15:42;;;;;;;;;;;15.50;99.90;;;;;;4918748;29;20375;-62
2022/08/07 08:18:28;;;;;;;;;;;15.60;99.90;;;;;;4917456;29;20307;-63
2022/08/07 08:21:00;;;;;;;;;;;15.70;99.90;;;;;;4901185;29;19927;-59
2022/08/07 08:29:03;;;;;;;;;;;16.10;99.90;;;;;;4918569;29;19927;-60
2022/08/07 08:31:32;;;;;;;;;;;16.10;99.90;;;;;;4918456;29;19927;-61
2022/08/07 08:34:31;;;;;;;;;;;16.20;99.90;;;;;;4918672;29;19966;-58
2022/08/07 08:36:59;;;;;;;;;;;16.30;99.90;;;;;;4918534;29;19927;-62
2022/08/07 08:39:27;;;;;;;;;;;16.40;99.90;;;;;;4898511;29;19950;-62
2022/08/07 08:42:23;;;;;;;;;;;16.40;99.90;;;;;;4901707;29;19931;-63
2022/08/07 08:45:01;;;;;;;;;;;16.50;99.90;;;;;;4933125;29;19934;-62
2022/08/07 08:47:54;;;;;;;;;;;16.60;99.90;;;;;;4918519;29;19927;-61
2022/08/07 08:50:36;;;;;;;;;;;16.70;99.90;;;;;;4918522;29;20315;-60
2022/08/07 08:53:18;;;;;;;;;;;16.80;99.90;;;;;;4916805;29;19927;-60
2022/08/07 08:55:48;;;;;;;;;;;16.90;99.90;;;;;;4914987;29;19927;-62
2022/08/07 08:58:43;;;;;;;;;;;17.00;99.90;;;;;;4928730;29;20212;-60
2022/08/07 09:01:16;;;;;;;;;;;17.10;99.90;;;;;;4929810;29;19950;-63
2022/08/07 09:03:45;;;;;;;;;;;17.20;99.90;;;;;;4913646;29;20315;-63
2022/08/07 09:06:25;;;;;;;;;;;17.30;99.90;;;;;;4915279;29;19927;-62
2022/08/07 09:08:56;;;;;;;;;;;17.40;99.90;;;;;;4915069;29;19927;-63
2022/08/07 09:11:44;;;;;;;;;;;17.60;99.90;;;;;;4914890;29;20397;-63
2022/08/07 09:14:32;;;;;;;;;;;17.70;99.90;;;;;;4915025;29;19931;-63
2022/08/07 09:17:14;;;;;;;;;;;17.90;99.90;;;;;;4915228;29;19934;-62
2022/08/07 09:19:55;;;;;;;;;;;18.10;99.90;;;;;;4909651;29;19950;-60
2022/08/07 09:22:41;;;;;;;;;;;18.20;99.90;;;;;;4898844;29;19934;-62
2022/08/07 09:25:46;;;;;;;;;;;18.40;99.90;;;;;;4913624;29;19934;-60
2022/08/07 09:28:28;;;;;;;;;;;18.50;99.90;;;;;;4914715;29;19927;-62
2022/08/07 09:31:35;;;;;;;;;;;18.60;99.90;;;;;;4914720;29;19938;-62
2022/08/07 09:34:08;;;;;;;;;;;18.70;99.90;;;;;;4914458;29;20004;-62
2022/08/07 09:36:39;;;;;;;;;;;18.80;99.90;;;;;;4914792;29;19935;-63
2022/08/07 09:39:31;;;;;;;;;;;18.80;99.90;;;;;;4914488;29;19934;-60
2022/08/07 09:42:37;;;;;;;;;;;18.90;99.90;;;;;;4914532;29;19934;-59
2022/08/07 09:45:17;;;;;;;;;;;18.90;99.90;;;;;;4914758;29;20414;-63
2022/08/07 09:48:05;;;;;;;;;;;19.10;99.90;;;;;;4914256;29;19927;-63
2022/08/07 09:50:59;;;;;;;;;;;19.20;99.90;;;;;;4914235;29;19934;-62
2022/08/07 09:53:33;;;;;;;;;;;19.30;99.90;;;;;;4914063;29;19951;-61
2022/08/07 09:56:17;;;;;;;;;;;19.40;99.90;;;;;;4913216;29;20311;-63
2022/08/07 09:59:09;;;;;;;;;;;19.50;99.90;;;;;;4912953;29;19927;-63
2022/08/07 10:01:56;;;;;;;;;;;19.60;99.90;;;;;;4914460;29;19934;-59
2022/08/07 10:04:51;;;;;;;;;;;19.80;99.90;;;;;;4913941;29;19935;-60
2022/08/07 10:07:31;;;;;;;;;;;19.80;99.90;;;;;;4896921;29;20380;-63
2022/08/07 10:10:27;;;;;;;;;;;19.90;99.60;;;;;;4913961;29;20414;-62
2022/08/07 10:13:15;;;;;;;;;;;19.80;99.60;;;;;;4912623;29;19927;-59
2022/08/07 10:16:11;;;;;;;;;;;19.90;99.90;;;;;;4912612;29;19934;-56
2022/08/07 10:18:48;;;;;;;;;;;20.10;99.60;;;;;;4913545;29;19943;-62
2022/08/07 10:21:34;;;;;;;;;;;20.10;99.50;;;;;;4913773;29;19935;-57
2022/08/07 10:24:44;;;;;;;;;;;20.20;99.40;;;;;;4913396;29;19927;-62
2022/08/07 10:27:25;;;;;;;;;;;20.40;99.10;;;;;;4913663;29;19934;-59
2022/08/07 10:30:13;;;;;;;;;;;20.40;98.60;;;;;;4913876;29;19927;-56
2022/08/07 10:32:48;;;;;;;;;;;20.50;98.50;;;;;;4913304;29;20405;-57
2022/08/07 10:35:26;;;;;;;;;;;20.60;98.50;;;;;;4909003;29;20383;-63
2022/08/07 10:38:28;;;;;;;;;;;20.70;98.40;;;;;;4902470;29;19927;-63
2022/08/07 10:41:23;;;;;;;;;;;20.80;97.30;;;;;;4913580;29;19931;-61
2022/08/07 10:44:29;;;;;;;;;;;20.90;97.40;;;;;;4927703;29;19927;-64
2022/08/07 10:47:23;;;;;;;;;;;21.00;96.70;;;;;;4910694;29;19931;-62
2022/08/07 10:50:23;;;;;;;;;;;21.00;96.10;;;;;;4907644;29;20378;-63
2022/08/07 10:53:01;;;;;;;;;;;21.00;96.20;;;;;;4901475;29;19927;-64
2022/08/07 10:55:40;;;;;;;;;;;21.00;96.30;;;;;;4911987;29;19931;-61
2022/08/07 10:58:11;;;;;;;;;;;21.00;96.70;;;;;;4913221;29;19927;-63
2022/08/07 11:00:50;;;;;;;;;;;21.10;96.10;;;;;;4912651;29;19934;-61
2022/08/07 11:03:33;;;;;;;;;;;21.20;96.10;;;;;;4909620;29;19927;-63
2022/08/07 11:06:20;;;;;;;;;;;21.30;96.00;;;;;;4910472;29;19931;-57
2022/08/07 11:09:08;;;;;;;;;;;21.40;95.40;;;;;;4913032;29;19934;-60
2022/08/07 11:11:52;;;;;;;;;;;21.50;95.70;;;;;;4909396;29;20394;-61
2022/08/07 11:14:28;;;;;;;;;;;21.60;95.60;;;;;;4912855;29;19930;-59
2022/08/07 11:17:29;;;;;;;;;;;21.80;95.40;;;;;;4912755;29;19938;-56
2022/08/07 11:20:18;;;;;;;;;;;21.90;94.80;;;;;;4912186;29;20001;-62
2022/08/07 11:22:58;;;;;;;;;;;21.80;94.20;;;;;;4911781;29;19934;-62
2022/08/07 11:25:35;;;;;;;;;;;21.70;93.90;;;;;;4911752;29;19931;-63
2022/08/07 11:28:16;;;;;;;;;;;21.60;94.00;;;;;;4912737;29;19934;-62
2022/08/07 11:30:50;;;;;;;;;;;21.60;94.00;;;;;;4911843;29;19938;-62
2022/08/07 11:33:37;;;;;;;;;;;21.50;94.10;;;;;;4909044;29;19928;-63
2022/08/07 11:36:30;;;;;;;;;;;21.50;94.50;;;;;;4910761;29;19927;-58
2022/08/07 11:38:58;;;;;;;;;;;21.60;94.20;;;;;;4911528;29;19949;-62
2022/08/07 11:41:28;;;;;;;;;;;21.70;94.20;;;;;;4912735;29;19927;-62
2022/08/07 11:44:21;;;;;;;;;;;21.80;94.60;;;;;;4912351;29;19931;-57
2022/08/07 11:47:07;;;;;;;;;;;22.00;94.50;;;;;;4911040;29;20302;-62
2022/08/07 11:49:45;;;;;;;;;;;22.20;94.30;;;;;;4912666;29;19934;-59
2022/08/07 11:52:48;;;;;;;;;;;22.40;93.90;;;;;;4912270;29;20389;-60
2022/08/07 11:55:36;;;;;;;;;;;22.80;93.00;;;;;;4912613;29;19928;-57
2022/08/07 11:58:37;;;;;;;;;;;22.90;92.50;;;;;;4912573;29;19934;-60
2022/08/07 12:01:13;;;;;;;;;;;23.10;92.10;;;;;;4895794;29;19934;-61
2022/08/07 12:04:06;;;;;;;;;;;23.40;92.20;;;;;;4912176;29;19927;-58
2022/08/07 12:06:53;;;;;;;;;;;23.80;92.30;;;;;;4912187;29;20322;-63
2022/08/07 12:09:32;;;;;;;;;;;24.20;91.30;;;;;;4912070;29;19938;-60
2022/08/07 12:12:07;;;;;;;;;;;24.50;91.00;;;;;;4912170;29;19934;-61
2022/08/07 12:14:56;;;;;;;;;;;24.90;90.70;;;;;;4912103;29;19934;-63
2022/08/07 12:17:31;;;;;;;;;;;25.30;90.30;;;;;;4912406;29;20421;-63
2022/08/07 12:20:07;;;;;;;;;;;25.70;90.00;;;;;;4912534;29;20276;-63
2022/08/07 12:22:54;;;;;;;;;;;26.00;86.30;;;;;;4911871;29;19954;-63
2022/08/07 12:28:56;;;;;;;;;;;26.30;82.70;;;;;;4912236;29;19927;-62
2022/08/07 12:31:42;;;;;;;;;;;26.20;81.90;;;;;;4915383;29;19934;-61
2022/08/07 12:34:34;;;;;;;;;;;26.30;83.30;;;;;;4915565;29;20399;-62
2022/08/07 12:37:02;;;;;;;;;;;26.50;80.40;;;;;;4915649;29;19927;-62
2022/08/07 12:39:50;;;;;;;;;;;26.70;81.40;;;;;;4914383;29;19932;-62
2022/08/07 12:42:20;;;;;;;;;;;26.90;80.10;;;;;;4915798;29;19942;-59
2022/08/07 12:45:01;;;;;;;;;;;26.90;80.00;;;;;;4915455;29;19927;-61
2022/08/07 12:47:39;;;;;;;;;;;26.80;79.60;;;;;;4915486;29;19927;-64
2022/08/07 12:50:14;;;;;;;;;;;26.80;78.30;;;;;;4915531;29;19938;-58
2022/08/07 12:53:02;;;;;;;;;;;26.80;78.60;;;;;;4914383;29;19938;-59
2022/08/07 12:55:54;;;;;;;;;;;26.90;79.90;;;;;;4915612;29;19934;-60
2022/08/07 12:58:33;;;;;;;;;;;27.00;78.50;;;;;;4915249;29;19927;-58
2022/08/07 13:01:05;;;;;;;;;;;27.00;78.90;;;;;;4915587;29;19927;-60
2022/08/07 13:03:50;;;;;;;;;;;26.90;76.10;;;;;;4915050;29;19931;-61
2022/08/07 13:06:29;;;;;;;;;;;26.80;77.40;;;;;;4928653;29;20260;-61
2022/08/07 13:08:56;;;;;;;;;;;26.90;77.80;;;;;;4913934;29;20422;-62
2022/08/07 13:11:30;;;;;;;;;;;27.20;78.00;;;;;;4915091;29;19927;-63
2022/08/07 13:14:23;;;;;;;;;;;27.50;76.70;;;;;;4914663;29;19931;-58
2022/08/07 13:17:09;;;;;;;;;;;27.70;74.70;;;;;;4915579;29;19931;-62
2022/08/07 13:19:56;;;;;;;;;;;28.00;74.70;;;;;;4895975;29;20291;-60
2022/08/07 13:22:32;;;;;;;;;;;28.20;74.70;;;;;;4898694;29;19936;-62
2022/08/07 13:25:00;;;;;;;;;;;28.30;72.80;;;;;;4914920;29;20092;-61
2022/08/07 13:27:36;;;;;;;;;;;28.50;71.80;;;;;;4914259;29;19927;-63
2022/08/07 13:30:25;;;;;;;;;;;28.80;71.50;;;;;;4915009;29;19927;-63
2022/08/07 13:33:16;;;;;;;;;;;29.00;71.30;;;;;;4914660;29;20299;-61
2022/08/07 13:36:23;;;;;;;;;;;29.20;70.20;;;;;;4914869;29;19934;-64
2022/08/07 13:39:05;;;;;;;;;;;29.40;70.20;;;;;;4909143;29;20295;-63
2022/08/07 13:41:48;;;;;;;;;;;29.50;68.70;;;;;;4912653;29;19935;-64
2022/08/07 13:44:21;;;;;;;;;;;29.40;68.10;;;;;;4913211;29;19927;-61
2022/08/07 13:46:55;;;;;;;;;;;29.20;68.50;;;;;;4913407;29;19938;-61
2022/08/07 13:49:23;;;;;;;;;;;29.10;68.10;;;;;;4914323;29;19931;-65
2022/08/07 13:52:12;;;;;;;;;;;29.10;69.20;;;;;;4914351;29;20311;-58
2022/08/07 13:55:04;;;;;;;;;;;29.30;67.30;;;;;;4914652;29;19927;-60
2022/08/07 13:57:32;;;;;;;;;;;29.40;67.70;;;;;;4913225;29;20314;-59
2022/08/07 14:00:07;;;;;;;;;;;29.40;67.40;;;;;;4914352;29;19938;-61
2022/08/07 14:02:54;;;;;;;;;;;29.40;67.10;;;;;;4914336;29;20522;-63
2022/08/07 14:05:23;;;;;;;;;;;29.40;67.50;;;;;;4914475;29;20307;-64
2022/08/07 14:08:05;;;;;;;;;;;29.60;65.80;;;;;;4914011;29;19927;-64
2022/08/07 14:10:35;;;;;;;;;;;29.60;65.90;;;;;;4914164;29;19935;-61
2022/08/07 14:13:12;;;;;;;;;;;29.60;66.40;;;;;;4912566;29;19927;-62
2022/08/07 14:15:43;;;;;;;;;;;29.60;66.60;;;;;;4914213;29;19927;-64
2022/08/07 14:18:19;;;;;;;;;;;29.80;66.60;;;;;;4913960;29;19931;-58
2022/08/07 14:21:18;;;;;;;;;;;30.00;66.60;;;;;;4913537;29;19931;-62
2022/08/07 14:24:07;;;;;;;;;;;30.20;64.90;;;;;;4922758;29;19927;-63
2022/08/07 14:26:42;;;;;;;;;;;30.50;64.60;;;;;;4913754;29;19927;-63
2022/08/07 14:29:18;;;;;;;;;;;30.70;64.60;;;;;;4913751;29;19954;-60
2022/08/07 14:32:07;;;;;;;;;;;30.90;65.40;;;;;;4914047;29;19927;-63
2022/08/07 14:34:39;;;;;;;;;;;31.10;63.10;;;;;;4913429;29;19934;-61
2022/08/07 14:37:14;;;;;;;;;;;31.10;62.70;;;;;;4913809;29;19928;-63
2022/08/07 14:39:45;;;;;;;;;;;31.10;62.60;;;;;;4913807;29;20055;-62
2022/08/07 14:42:34;;;;;;;;;;;31.10;62.30;;;;;;4913487;29;19935;-63
2022/08/07 14:45:24;;;;;;;;;;;31.00;62.20;;;;;;4913238;29;19932;-63
2022/08/07 14:48:12;;;;;;;;;;;31.20;62.40;;;;;;4925546;29;19927;-62
2022/08/07 14:51:04;;;;;;;;;;;31.10;60.80;;;;;;4912325;29;19931;-63
2022/08/07 14:53:35;;;;;;;;;;;31.00;61.00;;;;;;4911918;29;20291;-63
2022/08/07 14:56:25;;;;;;;;;;;30.90;61.90;;;;;;4913431;29;19931;-59
2022/08/07 14:58:59;;;;;;;;;;;31.00;61.50;;;;;;4912183;29;19927;-61
2022/08/07 15:01:30;;;;;;;;;;;31.00;60.70;;;;;;4913427;29;19935;-62
2022/08/07 15:04:17;;;;;;;;;;;31.20;61.80;;;;;;4912541;29;19931;-62
2022/08/07 15:06:46;;;;;;;;;;;31.20;60.70;;;;;;4911911;29;19927;-61
2022/08/07 15:09:16;;;;;;;;;;;31.20;60.80;;;;;;4912720;29;20311;-59
2022/08/07 15:12:13;;;;;;;;;;;31.00;61.10;;;;;;4911947;29;19927;-58
2022/08/07 15:15:07;;;;;;;;;;;30.90;60.90;;;;;;4898430;29;19927;-61
2022/08/07 15:17:39;;;;;;;;;;;30.80;61.70;;;;;;4911299;29;20343;-61
2022/08/07 15:20:30;;;;;;;;;;;30.60;61.20;;;;;;4911795;29;19931;-63
2022/08/07 15:23:21;;;;;;;;;;;30.60;62.50;;;;;;4912403;29;20284;-61
2022/08/07 15:26:09;;;;;;;;;;;30.60;61.60;;;;;;4912951;29;19934;-63
2022/08/07 15:28:48;;;;;;;;;;;30.60;62.30;;;;;;4912561;29;19927;-61
2022/08/07 15:31:36;;;;;;;;;;;30.70;62.20;;;;;;4911593;29;20402;-62
2022/08/07 15:34:23;;;;;;;;;;;31.00;62.70;;;;;;4912634;29;19943;-60
2022/08/07 15:36:53;;;;;;;;;;;31.00;61.60;;;;;;4912883;29;19927;-62